createdAt,value
2022-11-28T06:25:53.827Z,30.40
2022-11-28T06:28:21.392Z,39.13
2022-11-28T06:30:49.042Z,29.33
2022-11-28T06:33:16.890Z,15.77
2022-11-28T06:35:44.782Z,16.67
2022-11-28T06:38:14.398Z,18.50
2022-11-28T06:40:42.602Z,29.77
2022-11-28T06:43:11.638Z,19.55
2022-11-28T06:45:39.687Z,13.70
2022-11-28T06:48:07.413Z,14.32
2022-11-28T06:50:35.005Z,15.50
2022-11-28T06:53:02.563Z,14.75
2022-11-28T06:55:30.659Z,14.45
2022-11-28T06:57:58.294Z,15.27
2022-11-28T07:00:27.342Z,15.02
2022-11-28T07:02:55.242Z,15.07
2022-11-28T07:05:23.168Z,15.43
2022-11-28T07:07:54.470Z,25.30
2022-11-28T07:10:22.804Z,34.42
2022-11-28T07:12:54.002Z,20.17
2022-11-28T07:15:22.219Z,20.85
2022-11-28T07:17:51.840Z,19.38
2022-11-28T07:20:19.813Z,22.40
2022-11-28T07:22:48.594Z,22.33
2022-11-28T07:25:16.668Z,24.58
2022-11-28T07:27:44.388Z,35.83
2022-11-28T07:30:13.659Z,34.15
2022-11-28T07:32:41.395Z,21.80
2022-11-28T07:35:10.654Z,17.45
2022-11-28T07:37:38.245Z,18.83
2022-11-28T07:40:07.269Z,18.15
2022-11-28T07:42:35.111Z,17.55
2022-11-28T07:45:02.790Z,17.38
2022-11-28T07:47:30.943Z,20.05
2022-11-28T07:49:58.463Z,20.60
2022-11-28T07:52:27.483Z,21.08
2022-11-28T07:54:55.376Z,20.42
2022-11-28T07:57:22.944Z,17.98
2022-11-28T07:59:51.727Z,21.33
2022-11-28T08:02:20.026Z,21.27
2022-11-28T08:04:51.546Z,14.00
2022-11-28T08:07:21.983Z,16.33
2022-11-28T08:09:51.074Z,17.98
2022-11-28T08:12:18.651Z,19.50
2022-11-28T08:14:46.563Z,35.65
2022-11-28T08:17:14.438Z,42.42
2022-11-28T08:19:42.308Z,45.83
2022-11-28T08:22:09.996Z,21.35
2022-11-28T08:24:38.034Z,17.75
2022-11-28T08:27:07.119Z,26.27
2022-11-28T08:29:35.047Z,21.90
2022-11-28T08:32:02.641Z,25.70
2022-11-28T08:34:30.527Z,20.95
2022-11-28T08:36:58.215Z,14.88
2022-11-28T08:39:26.002Z,14.70
2022-11-28T08:41:54.243Z,14.68
2022-11-28T08:44:23.591Z,15.23
2022-11-28T08:46:51.244Z,15.15
2022-11-28T08:49:18.908Z,21.75
2022-11-28T08:51:46.737Z,14.90
2022-11-28T08:54:14.923Z,22.08
2022-11-28T08:56:43.773Z,16.95
2022-11-28T08:59:11.585Z,17.55
2022-11-28T09:01:40.623Z,15.35
2022-11-28T09:04:29.430Z,16.23
2022-11-28T09:06:57.288Z,18.58
2022-11-28T09:09:26.312Z,24.75
2022-11-28T09:14:26.682Z,17.00
2022-11-28T09:16:55.802Z,15.88
2022-11-28T09:19:24.251Z,16.08
2022-11-28T09:21:57.529Z,20.65
2022-11-28T09:24:25.668Z,18.23
2022-11-28T09:26:53.235Z,23.70
2022-11-28T09:29:20.798Z,27.10
2022-11-28T09:31:48.499Z,24.10
2022-11-28T09:34:17.553Z,19.75
2022-11-28T09:36:45.206Z,31.75
2022-11-28T09:39:12.943Z,23.15
2022-11-28T09:42:04.383Z,17.17
2022-11-28T09:44:42.119Z,18.13
2022-11-28T09:47:18.128Z,24.90
2022-11-28T09:49:52.618Z,18.13
2022-11-28T09:52:32.412Z,16.42
2022-11-28T09:55:14.473Z,20.98
2022-11-28T10:00:15.043Z,16.83
2022-11-28T11:27:19.465Z,15.80
2022-11-28T11:29:51.230Z,14.10
2022-11-28T11:32:21.439Z,14.15
2022-11-28T11:34:50.582Z,14.40
2022-11-28T11:37:31.620Z,15.55
2022-11-28T11:40:01.058Z,15.70
2022-11-28T11:42:33.099Z,18.23
2022-11-28T11:45:24.540Z,17.05
2022-11-28T11:47:52.469Z,14.10
2022-11-28T11:50:22.455Z,16.52
2022-11-28T11:53:06.707Z,16.02
2022-11-28T11:55:43.563Z,16.98
2022-11-28T11:58:18.559Z,15.88
2022-11-28T12:00:46.995Z,20.67
2022-11-28T12:03:25.880Z,21.95
2022-11-28T12:06:14.276Z,21.30
2022-11-28T12:08:47.912Z,18.23
2022-11-28T12:11:42.489Z,16.70
2022-11-28T12:14:27.055Z,15.73
2022-11-28T12:20:08.738Z,19.10
2022-11-28T12:22:48.861Z,19.70
2022-11-28T12:25:26.008Z,19.45
2022-11-28T12:28:01.384Z,17.88
2022-11-28T12:30:45.446Z,18.13
2022-11-28T12:33:33.120Z,18.67
2022-11-28T12:36:10.799Z,14.65
2022-11-28T12:38:55.468Z,15.20
2022-11-28T12:55:47.204Z,13.75
2022-11-28T12:58:21.915Z,15.05
2022-11-28T13:00:57.954Z,17.90
2022-11-28T13:03:38.914Z,15.80
2022-11-28T13:06:22.606Z,15.18
2022-11-28T13:09:09.459Z,12.52
2022-11-28T13:11:56.326Z,12.05
2022-11-28T13:14:34.340Z,14.98
2022-11-28T13:17:15.565Z,14.77
2022-11-28T13:19:52.161Z,11.40
2022-11-28T13:22:24.091Z,14.18
2022-11-28T13:25:01.950Z,13.23
2022-11-28T13:27:41.906Z,14.57
2022-11-28T13:30:19.644Z,21.67
2022-11-28T13:32:56.026Z,14.73
2022-11-28T13:35:24.728Z,16.70
2022-11-28T13:40:51.922Z,13.75
2022-11-28T13:43:27.713Z,13.95
2022-11-28T13:45:56.206Z,15.32
2022-11-28T13:49:13.699Z,16.05
2022-11-28T13:51:42.405Z,16.30
2022-11-28T13:54:42.465Z,14.15
2022-11-28T13:57:21.549Z,14.50
2022-11-28T13:59:57.766Z,15.38
2022-11-28T14:02:36.207Z,13.20
2022-11-28T14:05:14.888Z,14.50
2022-11-28T14:07:49.996Z,17.38
2022-11-28T14:10:40.580Z,25.08
2022-11-28T14:13:49.639Z,16.58
2022-11-28T14:16:33.958Z,15.00
2022-11-28T14:19:14.503Z,14.50
2022-11-28T14:21:56.639Z,12.85
2022-11-28T14:24:37.142Z,13.18
2022-11-28T14:27:07.048Z,11.82
2022-11-28T14:29:39.148Z,12.05
2022-11-28T14:32:32.392Z,12.13
2022-11-28T14:35:00.991Z,22.13
2022-11-28T14:37:56.685Z,26.75
2022-11-28T14:41:00.326Z,20.33
2022-11-28T14:43:29.539Z,18.98
2022-11-28T14:46:36.707Z,19.00
2022-11-28T14:49:17.754Z,15.30
2022-11-28T14:52:30.769Z,17.65
2022-11-28T14:54:54.892Z,19.92
2022-11-28T14:57:28.587Z,17.95
2022-11-28T14:59:58.794Z,18.60
2022-11-28T15:02:36.281Z,19.15
2022-11-28T15:05:19.734Z,21.70
2022-11-28T15:08:00.681Z,28.13
2022-11-28T15:10:39.272Z,24.63
2022-11-28T15:13:32.504Z,24.73
2022-11-28T15:16:05.528Z,16.40
2022-11-28T15:18:34.990Z,18.63
2022-11-28T15:21:11.892Z,28.70
2022-11-28T15:23:39.481Z,24.52
2022-11-28T15:26:17.505Z,27.13
2022-11-28T15:28:45.082Z,20.80
2022-11-28T15:31:21.898Z,22.27
2022-11-28T15:33:50.791Z,30.20
2022-11-28T15:36:27.236Z,41.22
2022-11-28T15:38:56.933Z,25.08
2022-11-28T15:41:27.340Z,23.83
2022-11-28T15:43:56.694Z,34.70
2022-11-28T15:46:30.716Z,35.92
2022-11-28T15:48:58.536Z,30.23
2022-11-28T15:51:30.718Z,25.98
2022-11-28T15:53:58.471Z,28.27
2022-11-28T15:56:26.668Z,27.10
2022-11-28T15:58:54.887Z,20.05
2022-11-28T16:01:24.141Z,20.30
2022-11-28T16:03:56.661Z,22.50
2022-11-28T16:06:26.882Z,18.35
2022-11-28T16:08:58.678Z,16.55
2022-11-28T16:13:57.756Z,20.42
2022-11-28T16:16:28.655Z,22.92
2022-11-28T16:18:58.149Z,17.83
2022-11-28T20:59:18.186Z,7.65
